createdAt,value
2023-03-27T00:00:43.818Z,5.88
2023-03-27T00:01:43.833Z,6.03
2023-03-27T00:02:43.871Z,5.92
2023-03-27T00:03:43.911Z,5.92
2023-03-27T00:04:43.761Z,5.92
2023-03-27T00:05:43.751Z,5.99
2023-03-27T00:06:43.733Z,5.99
2023-03-27T00:07:43.717Z,5.98
2023-03-27T00:08:43.706Z,5.92
2023-03-27T00:09:43.699Z,6.05
2023-03-27T00:10:43.687Z,5.95
2023-03-27T00:11:43.674Z,5.96
2023-03-27T00:12:43.660Z,5.99
2023-03-27T00:13:49.404Z,6.01
2023-03-27T00:14:44.818Z,5.99
2023-03-27T00:15:43.626Z,5.88
2023-03-27T00:16:43.659Z,5.93
2023-03-27T00:17:43.626Z,5.87
2023-03-27T00:18:43.603Z,6.01
2023-03-27T00:19:43.560Z,6.02
2023-03-27T00:20:43.543Z,5.92
2023-03-27T00:21:43.539Z,6.02
2023-03-27T00:22:43.521Z,5.98
2023-03-27T00:23:43.517Z,6.02
2023-03-27T00:24:43.496Z,6.03
2023-03-27T00:25:43.491Z,5.96
2023-03-27T00:26:43.469Z,5.99
2023-03-27T00:27:43.468Z,5.96
2023-03-27T00:28:43.451Z,5.92
2023-03-27T00:29:43.431Z,5.95
2023-03-27T00:30:43.445Z,5.87
2023-03-27T00:31:43.407Z,5.95
2023-03-27T00:32:43.453Z,5.93
2023-03-27T00:33:43.384Z,5.92
2023-03-27T00:34:43.406Z,5.92
2023-03-27T00:35:43.768Z,5.96
2023-03-27T00:36:43.331Z,5.99
2023-03-27T00:37:43.324Z,6.08
2023-03-27T00:38:43.305Z,6.02
2023-03-27T00:39:43.650Z,5.92
2023-03-27T00:40:43.310Z,6.01
2023-03-27T00:41:43.267Z,5.88
2023-03-27T00:42:43.250Z,5.93
2023-03-27T00:43:43.246Z,5.92
2023-03-27T00:44:43.225Z,5.87
2023-03-27T00:45:43.324Z,5.84
2023-03-27T00:46:43.265Z,5.87
2023-03-27T00:47:43.267Z,5.81
2023-03-27T00:48:43.178Z,5.81
2023-03-27T00:49:43.164Z,5.78
2023-03-27T00:50:43.168Z,5.81
2023-03-27T00:51:43.138Z,5.80
2023-03-27T00:52:43.159Z,5.80
2023-03-27T00:53:43.112Z,5.83
2023-03-27T00:54:43.096Z,5.84
2023-03-27T00:55:43.086Z,5.77
2023-03-27T00:56:43.109Z,5.80
2023-03-27T00:57:43.086Z,5.81
2023-03-27T00:58:43.085Z,5.88
2023-03-27T00:59:43.041Z,5.73
2023-03-27T01:00:43.015Z,5.75
2023-03-27T01:01:43.041Z,5.80
2023-03-27T01:02:43.056Z,5.66
2023-03-27T01:03:43.065Z,5.70
2023-03-27T01:04:42.967Z,5.62
2023-03-27T01:05:42.952Z,5.70
2023-03-27T01:06:42.960Z,5.69
2023-03-27T01:07:42.924Z,5.66
2023-03-27T01:08:43.937Z,5.65
2023-03-27T01:09:42.896Z,5.66
2023-03-27T01:10:42.885Z,5.67
2023-03-27T01:11:42.879Z,5.73
2023-03-27T01:12:42.856Z,5.70
2023-03-27T01:13:42.846Z,5.62
2023-03-27T01:14:42.828Z,5.63
2023-03-27T01:15:42.825Z,5.56
2023-03-27T01:16:42.796Z,5.58
2023-03-27T01:17:42.887Z,5.58
2023-03-27T01:18:42.764Z,5.56
2023-03-27T01:19:42.762Z,5.51
2023-03-27T01:20:42.738Z,5.62
2023-03-27T01:21:42.727Z,5.52
2023-03-27T01:22:42.733Z,5.58
2023-03-27T01:23:59.763Z,5.51
2023-03-27T01:24:43.718Z,5.51
2023-03-27T01:25:42.681Z,5.48
2023-03-27T01:26:42.669Z,5.48
2023-03-27T01:27:42.649Z,5.49
2023-03-27T01:28:42.643Z,5.55
2023-03-27T01:29:42.617Z,5.47
2023-03-27T01:30:42.608Z,5.49
2023-03-27T01:31:42.622Z,5.63
2023-03-27T01:32:42.596Z,5.42
2023-03-27T01:33:42.568Z,5.60
2023-03-27T01:34:42.909Z,5.66
2023-03-27T01:35:42.555Z,5.58
2023-03-27T01:36:42.521Z,5.63
2023-03-27T01:37:42.509Z,5.51
2023-03-27T01:38:42.521Z,5.63
2023-03-27T01:39:42.483Z,5.47
2023-03-27T01:40:42.472Z,5.58
2023-03-27T01:41:42.464Z,5.42
2023-03-27T01:42:42.450Z,5.51
2023-03-27T01:43:42.437Z,5.60
2023-03-27T01:44:45.280Z,5.44
2023-03-27T01:45:42.398Z,5.45
2023-03-27T01:46:42.423Z,5.42
2023-03-27T01:47:42.411Z,5.38
2023-03-27T01:48:42.365Z,5.37
2023-03-27T01:49:42.343Z,5.44
2023-03-27T01:50:42.342Z,5.41
2023-03-27T01:51:42.321Z,5.41
2023-03-27T01:52:42.310Z,5.37
2023-03-27T01:53:42.302Z,5.40
2023-03-27T01:54:42.313Z,5.41
2023-03-27T01:55:42.265Z,5.35
2023-03-27T01:56:42.277Z,5.44
2023-03-27T01:57:49.233Z,5.44
2023-03-27T01:58:43.251Z,5.41
2023-03-27T01:59:42.214Z,5.27
2023-03-27T02:00:51.921Z,5.41
2023-03-27T02:01:43.343Z,5.27
2023-03-27T02:02:42.203Z,5.38
2023-03-27T02:03:42.155Z,5.35
2023-03-27T02:04:42.174Z,5.20
2023-03-27T02:05:42.129Z,5.33
2023-03-27T02:06:42.120Z,5.37
2023-03-27T02:07:42.106Z,5.29
2023-03-27T02:08:42.101Z,5.27
2023-03-27T02:09:42.081Z,5.24
2023-03-27T02:10:42.084Z,5.26
2023-03-27T02:11:42.044Z,5.26
2023-03-27T02:12:42.038Z,5.27
2023-03-27T02:13:42.021Z,5.27
2023-03-27T02:14:42.007Z,5.24
2023-03-27T02:15:41.998Z,5.24
2023-03-27T02:16:42.012Z,5.11
2023-03-27T02:17:42.000Z,5.11
2023-03-27T02:18:41.955Z,5.12
2023-03-27T02:19:42.299Z,5.14
2023-03-27T02:20:41.930Z,5.05
2023-03-27T02:21:41.920Z,4.93
2023-03-27T02:22:41.897Z,5.08
2023-03-27T02:23:41.896Z,4.99
2023-03-27T02:24:41.871Z,5.06
2023-03-27T02:25:41.861Z,4.90
2023-03-27T02:26:41.871Z,5.04
2023-03-27T02:27:41.831Z,4.88
2023-03-27T02:28:41.826Z,4.94
2023-03-27T02:29:41.806Z,4.84
2023-03-27T02:30:41.790Z,4.96
2023-03-27T02:31:41.840Z,4.96
2023-03-27T02:32:41.878Z,4.84
2023-03-27T02:33:41.743Z,4.74
2023-03-27T02:34:41.737Z,4.80
2023-03-27T02:35:41.730Z,4.80
2023-03-27T02:36:41.710Z,4.77
2023-03-27T02:37:41.689Z,4.83
2023-03-27T02:38:41.686Z,4.84
2023-03-27T02:39:41.870Z,4.80
2023-03-27T02:40:41.655Z,4.68
2023-03-27T02:41:41.886Z,4.65
2023-03-27T02:42:41.649Z,4.71
2023-03-27T02:43:42.011Z,4.69
2023-03-27T02:44:46.342Z,4.64
2023-03-27T02:45:42.617Z,4.83
2023-03-27T02:46:41.578Z,4.71
2023-03-27T02:47:41.576Z,4.75
2023-03-27T02:48:41.545Z,4.65
2023-03-27T02:49:41.536Z,4.59
2023-03-27T02:50:41.525Z,4.56
2023-03-27T02:51:41.529Z,4.59
2023-03-27T02:52:41.798Z,4.54
2023-03-27T02:53:41.490Z,4.62
2023-03-27T02:54:41.474Z,4.65
2023-03-27T02:55:41.457Z,4.61
2023-03-27T02:56:41.468Z,4.54
2023-03-27T02:57:41.426Z,4.53
2023-03-27T02:58:42.527Z,4.59
2023-03-27T02:59:41.397Z,4.46
2023-03-27T03:00:41.391Z,4.49
2023-03-27T03:01:41.413Z,4.47
2023-03-27T03:02:41.427Z,4.36
2023-03-27T03:03:41.345Z,4.47
2023-03-27T03:04:41.341Z,4.44
2023-03-27T03:05:41.364Z,4.51
2023-03-27T03:06:41.311Z,4.44
2023-03-27T03:07:41.299Z,4.26
2023-03-27T03:08:41.283Z,4.29
2023-03-27T03:09:41.366Z,4.32
2023-03-27T03:10:41.257Z,4.47
2023-03-27T03:11:41.243Z,4.34
2023-03-27T03:12:41.225Z,4.46
2023-03-27T03:13:41.228Z,4.39
2023-03-27T03:14:41.229Z,4.24
2023-03-27T03:15:41.192Z,4.26
2023-03-27T03:16:41.237Z,4.29
2023-03-27T03:17:41.180Z,4.21
2023-03-27T03:18:41.142Z,4.21
2023-03-27T03:19:41.132Z,4.07
2023-03-27T03:20:41.122Z,4.11
2023-03-27T03:21:41.102Z,4.17
2023-03-27T03:22:41.095Z,4.21
2023-03-27T03:23:41.072Z,4.00
2023-03-27T03:24:41.070Z,4.16
2023-03-27T03:25:41.054Z,4.04
2023-03-27T03:26:41.040Z,3.95
2023-03-27T03:27:41.024Z,3.98
2023-03-27T03:28:41.018Z,4.02
2023-03-27T03:29:42.028Z,4.04
2023-03-27T03:30:41.054Z,3.90
2023-03-27T03:31:40.969Z,3.92
2023-03-27T03:32:41.003Z,3.93
2023-03-27T03:33:40.947Z,3.78
2023-03-27T03:34:40.932Z,3.88
2023-03-27T03:35:40.926Z,3.80
2023-03-27T03:36:40.902Z,3.74
2023-03-27T03:37:40.891Z,3.75
2023-03-27T03:38:40.875Z,3.86
2023-03-27T03:39:40.889Z,3.82
2023-03-27T03:40:40.849Z,3.93
2023-03-27T03:41:40.848Z,3.81
2023-03-27T03:42:40.825Z,3.72
2023-03-27T03:43:40.813Z,3.63
2023-03-27T03:44:40.793Z,3.64
2023-03-27T03:45:40.788Z,3.62
2023-03-27T03:46:40.885Z,3.60
2023-03-27T03:47:40.796Z,3.54
2023-03-27T03:48:40.744Z,3.46
2023-03-27T03:49:40.735Z,3.49
2023-03-27T03:50:40.918Z,3.45
2023-03-27T03:51:40.711Z,3.49
2023-03-27T03:52:40.689Z,3.50
2023-03-27T03:53:40.678Z,3.41
2023-03-27T03:54:40.661Z,3.35
2023-03-27T03:55:40.647Z,3.34
2023-03-27T03:56:40.661Z,3.31
2023-03-27T03:57:40.612Z,3.35
2023-03-27T03:58:40.603Z,3.30
2023-03-27T03:59:40.597Z,3.30
2023-03-27T04:00:40.584Z,3.28
2023-03-27T04:01:40.591Z,3.25
2023-03-27T04:02:40.687Z,3.22
2023-03-27T04:03:40.629Z,3.26
2023-03-27T04:04:40.525Z,3.04
2023-03-27T04:05:40.509Z,3.19
2023-03-27T04:06:40.497Z,3.19
2023-03-27T04:07:40.634Z,3.12
2023-03-27T04:08:40.468Z,3.17
2023-03-27T04:09:40.459Z,3.10
2023-03-27T04:10:40.444Z,3.02
2023-03-27T04:11:40.426Z,3.08
2023-03-27T04:12:40.410Z,3.10
2023-03-27T04:13:40.406Z,2.90
2023-03-27T04:14:40.386Z,3.02
2023-03-27T04:15:40.418Z,2.92
2023-03-27T04:16:40.360Z,2.98
2023-03-27T04:17:40.444Z,2.98
2023-03-27T04:18:40.427Z,2.95
2023-03-27T04:19:40.318Z,2.92
2023-03-27T04:20:40.297Z,3.01
2023-03-27T04:21:40.288Z,2.86
2023-03-27T04:22:40.422Z,2.89
2023-03-27T04:23:40.258Z,2.81
2023-03-27T04:24:40.250Z,2.90
2023-03-27T04:25:40.303Z,2.86
2023-03-27T04:26:40.215Z,2.84
2023-03-27T04:27:40.204Z,2.74
2023-03-27T04:28:40.196Z,2.80
2023-03-27T04:29:40.182Z,2.77
2023-03-27T04:30:40.169Z,2.63
2023-03-27T04:31:40.207Z,2.76
2023-03-27T04:32:40.182Z,2.73
2023-03-27T04:33:40.130Z,2.76
2023-03-27T04:34:40.137Z,2.77
2023-03-27T04:35:40.167Z,2.77
2023-03-27T04:36:40.083Z,2.84
2023-03-27T04:37:40.076Z,2.69
2023-03-27T04:38:40.070Z,2.74
2023-03-27T04:39:40.054Z,2.65
2023-03-27T04:40:40.036Z,2.62
2023-03-27T04:41:40.017Z,2.65
2023-03-27T04:42:40.008Z,2.62
2023-03-27T04:43:39.998Z,2.62
2023-03-27T04:44:39.978Z,2.71
2023-03-27T04:45:39.971Z,2.50
2023-03-27T04:46:39.967Z,2.59
2023-03-27T04:47:39.990Z,2.66
2023-03-27T04:48:39.951Z,2.63
2023-03-27T04:49:39.910Z,2.63
2023-03-27T04:50:39.916Z,2.58
2023-03-27T04:51:39.888Z,2.61
2023-03-27T04:52:39.868Z,2.59
2023-03-27T04:53:39.871Z,2.47
2023-03-27T04:54:39.993Z,2.56
2023-03-27T04:55:39.829Z,2.65
2023-03-27T04:56:39.818Z,2.61
2023-03-27T04:57:39.828Z,2.48
2023-03-27T04:58:39.795Z,2.59
2023-03-27T04:59:39.778Z,2.56
2023-03-27T05:00:39.754Z,2.55
2023-03-27T05:01:39.785Z,2.55
2023-03-27T05:02:39.766Z,2.55
2023-03-27T05:03:39.749Z,2.45
2023-03-27T05:04:39.706Z,2.44
2023-03-27T05:05:39.691Z,2.38
2023-03-27T05:06:40.642Z,2.32
2023-03-27T05:07:39.663Z,2.36
2023-03-27T05:08:39.648Z,2.38
2023-03-27T05:09:39.643Z,2.36
2023-03-27T05:10:39.628Z,2.30
2023-03-27T05:11:39.626Z,2.36
2023-03-27T05:12:39.592Z,2.26
2023-03-27T05:13:39.590Z,2.26
2023-03-27T05:14:39.568Z,2.22
2023-03-27T05:15:39.560Z,2.15
2023-03-27T05:16:39.576Z,2.19
2023-03-27T05:17:39.616Z,2.20
2023-03-27T05:18:41.794Z,2.11
2023-03-27T05:19:39.506Z,2.12
2023-03-27T05:20:39.482Z,2.15
2023-03-27T05:21:39.550Z,2.20
2023-03-27T05:22:39.482Z,2.22
2023-03-27T05:23:39.457Z,2.11
2023-03-27T05:24:39.434Z,2.20
2023-03-27T05:25:39.447Z,2.23
2023-03-27T05:26:39.408Z,2.11
2023-03-27T05:27:39.395Z,2.19
2023-03-27T05:28:39.389Z,2.14
2023-03-27T05:29:46.835Z,2.15
2023-03-27T05:30:40.441Z,2.05
2023-03-27T05:31:39.347Z,2.08
2023-03-27T05:32:39.366Z,2.08
2023-03-27T05:33:39.318Z,2.23
2023-03-27T05:34:39.302Z,2.19
2023-03-27T05:35:39.317Z,2.04
2023-03-27T05:36:39.284Z,2.07
2023-03-27T05:37:39.274Z,2.04
2023-03-27T05:38:39.505Z,2.20
2023-03-27T05:39:39.248Z,2.15
2023-03-27T05:40:39.223Z,2.19
2023-03-27T05:41:39.206Z,2.15
2023-03-27T05:42:39.192Z,2.11
2023-03-27T05:43:39.524Z,2.23
2023-03-27T05:44:39.171Z,2.11
2023-03-27T05:45:39.161Z,2.05
2023-03-27T05:46:39.167Z,2.08
2023-03-27T05:47:39.160Z,2.08
2023-03-27T05:48:39.125Z,2.18
2023-03-27T05:49:39.102Z,2.18
2023-03-27T05:50:39.092Z,2.05
2023-03-27T05:51:39.087Z,2.19
2023-03-27T05:52:40.086Z,2.15
2023-03-27T05:53:39.053Z,2.22
2023-03-27T05:54:39.078Z,2.11
2023-03-27T05:55:39.028Z,2.12
2023-03-27T05:56:39.064Z,2.00
2023-03-27T05:57:39.002Z,2.02
2023-03-27T05:58:38.993Z,2.04
2023-03-27T05:59:38.974Z,2.04
2023-03-27T06:00:38.965Z,2.09
2023-03-27T06:01:38.944Z,2.04
2023-03-27T06:02:39.049Z,2.18
2023-03-27T06:03:39.185Z,2.05
2023-03-27T06:04:38.942Z,2.11
2023-03-27T06:05:38.891Z,2.04
2023-03-27T06:06:38.879Z,2.14
2023-03-27T06:07:40.857Z,2.08
2023-03-27T06:08:38.879Z,2.15
2023-03-27T06:09:38.842Z,2.12
2023-03-27T06:10:39.157Z,2.12
2023-03-27T06:11:38.924Z,2.20
2023-03-27T06:12:38.807Z,2.19
2023-03-27T06:13:38.795Z,2.09
2023-03-27T06:14:38.781Z,2.23
2023-03-27T06:15:38.784Z,2.23
2023-03-27T06:16:38.754Z,2.09
2023-03-27T06:17:38.735Z,2.29
2023-03-27T06:18:38.749Z,2.25
2023-03-27T06:19:38.718Z,2.18
2023-03-27T06:20:38.697Z,2.27
2023-03-27T06:21:40.948Z,2.33
2023-03-27T06:22:38.677Z,2.25
2023-03-27T06:23:38.663Z,2.29
2023-03-27T06:24:38.661Z,2.33
2023-03-27T06:25:38.638Z,2.36
2023-03-27T06:26:38.640Z,2.41
2023-03-27T06:27:38.602Z,2.38
2023-03-27T06:28:38.595Z,2.33
2023-03-27T06:29:38.583Z,2.45
2023-03-27T06:30:38.565Z,2.47
2023-03-27T06:31:38.567Z,2.59
2023-03-27T06:32:38.564Z,2.50
2023-03-27T06:33:38.540Z,2.56
2023-03-27T06:34:38.526Z,2.44
2023-03-27T06:35:38.523Z,2.56
2023-03-27T06:36:38.487Z,2.56
2023-03-27T06:37:38.469Z,2.59
2023-03-27T06:38:38.468Z,2.56
2023-03-27T06:39:38.441Z,2.48
2023-03-27T06:40:38.434Z,2.51
2023-03-27T06:41:38.519Z,2.56
2023-03-27T06:42:38.436Z,2.50
2023-03-27T06:43:38.389Z,2.51
2023-03-27T06:44:38.372Z,2.50
2023-03-27T06:45:38.358Z,2.58
2023-03-27T06:46:45.148Z,2.59
2023-03-27T06:47:51.701Z,2.65
2023-03-27T06:48:39.402Z,2.65
2023-03-27T06:49:38.307Z,2.53
2023-03-27T06:50:38.293Z,2.59
2023-03-27T06:51:38.296Z,2.55
2023-03-27T06:52:38.288Z,2.55
2023-03-27T06:53:38.379Z,2.55
2023-03-27T06:54:38.235Z,2.63
2023-03-27T06:55:38.223Z,2.79
2023-03-27T06:56:38.231Z,2.61
2023-03-27T06:57:38.324Z,2.62
2023-03-27T06:58:38.212Z,2.56
2023-03-27T06:59:38.203Z,2.38
2023-03-27T07:00:38.397Z,2.61
2023-03-27T07:01:38.157Z,2.63
2023-03-27T07:02:38.193Z,2.51
2023-03-27T07:03:38.109Z,2.61
2023-03-27T07:04:38.108Z,2.59
2023-03-27T07:05:38.135Z,2.55
2023-03-27T07:06:39.640Z,2.63
2023-03-27T07:07:40.319Z,2.61
2023-03-27T07:08:38.045Z,2.71
2023-03-27T07:09:40.043Z,2.83
2023-03-27T07:10:38.012Z,2.99
2023-03-27T07:11:38.000Z,2.99
2023-03-27T07:12:37.990Z,2.97
2023-03-27T07:13:37.973Z,2.99
2023-03-27T07:14:37.985Z,3.10
2023-03-27T07:15:37.946Z,3.28
2023-03-27T07:16:38.231Z,3.17
2023-03-27T07:17:48.123Z,3.12
2023-03-27T07:18:38.929Z,3.20
2023-03-27T07:19:37.889Z,3.16
2023-03-27T07:20:37.873Z,3.08
2023-03-27T07:21:37.860Z,2.94
2023-03-27T07:22:37.847Z,2.95
2023-03-27T07:23:37.833Z,2.86
2023-03-27T07:24:37.820Z,2.84
2023-03-27T07:25:37.818Z,2.80
2023-03-27T07:26:37.800Z,2.89
2023-03-27T07:27:37.780Z,2.98
2023-03-27T07:28:37.771Z,2.97
2023-03-27T07:29:37.792Z,3.07
2023-03-27T07:30:37.770Z,3.25
2023-03-27T07:32:38.169Z,3.23
2023-03-27T07:33:37.741Z,3.50
2023-03-27T07:34:37.687Z,3.64
2023-03-27T07:35:37.683Z,3.71
2023-03-27T07:36:37.672Z,3.77
2023-03-27T07:37:38.217Z,3.81
2023-03-27T07:38:37.629Z,4.02
2023-03-27T07:39:37.632Z,3.98
2023-03-27T07:40:40.349Z,3.93
2023-03-27T07:41:37.583Z,3.90
2023-03-27T07:42:37.571Z,3.98
2023-03-27T07:43:37.560Z,4.02
2023-03-27T07:44:37.547Z,4.14
2023-03-27T07:45:37.576Z,4.26
2023-03-27T07:46:37.543Z,4.29
2023-03-27T07:47:37.525Z,4.34
2023-03-27T07:48:37.498Z,4.35
2023-03-27T07:49:38.832Z,4.31
2023-03-27T07:50:37.491Z,4.31
2023-03-27T07:51:37.454Z,4.42
2023-03-27T07:52:37.438Z,4.26
2023-03-27T07:53:37.429Z,4.50
2023-03-27T07:54:37.415Z,4.80
2023-03-27T07:55:37.401Z,4.87
2023-03-27T07:56:37.479Z,4.94
2023-03-27T07:57:46.431Z,4.83
2023-03-27T07:58:38.413Z,4.77
2023-03-27T07:59:37.350Z,4.79
2023-03-27T08:00:37.333Z,4.67
2023-03-27T08:01:37.316Z,4.62
2023-03-27T08:02:37.364Z,4.61
2023-03-27T08:03:37.514Z,4.44
2023-03-27T08:04:37.371Z,4.47
2023-03-27T08:05:37.278Z,4.67
2023-03-27T08:06:37.254Z,4.69
2023-03-27T08:07:37.245Z,4.59
2023-03-27T08:08:37.224Z,4.77
2023-03-27T08:09:37.212Z,4.59
2023-03-27T08:10:37.197Z,4.42
2023-03-27T08:11:37.183Z,4.31
2023-03-27T08:12:37.170Z,4.24
2023-03-27T08:13:37.157Z,4.11
2023-03-27T08:14:37.149Z,4.24
2023-03-27T08:15:37.124Z,4.47
2023-03-27T08:16:37.162Z,4.39
2023-03-27T08:17:37.219Z,4.57
2023-03-27T08:18:37.107Z,4.50
2023-03-27T08:19:37.073Z,4.49
2023-03-27T08:20:37.066Z,4.36
2023-03-27T08:21:37.048Z,4.50
2023-03-27T08:22:37.050Z,4.57
2023-03-27T08:23:37.025Z,4.44
2023-03-27T08:24:37.012Z,4.50
2023-03-27T08:25:37.262Z,4.39
2023-03-27T08:26:36.993Z,4.65
2023-03-27T08:27:36.979Z,4.53
2023-03-27T08:28:36.952Z,4.72
2023-03-27T08:29:36.946Z,4.75
2023-03-27T08:30:36.949Z,4.79
2023-03-27T08:31:36.912Z,4.57
2023-03-27T08:32:36.962Z,4.80
2023-03-27T08:33:36.884Z,4.74
2023-03-27T08:34:36.896Z,4.72
2023-03-27T08:35:36.906Z,4.86
2023-03-27T08:36:36.839Z,4.93
2023-03-27T08:37:36.825Z,5.20
2023-03-27T08:38:36.812Z,5.19
2023-03-27T08:39:36.798Z,5.45
2023-03-27T08:40:36.792Z,5.37
2023-03-27T08:41:36.772Z,5.59
2023-03-27T08:42:36.853Z,6.32
2023-03-27T08:43:36.743Z,6.71
2023-03-27T08:44:36.787Z,6.89
2023-03-27T08:45:36.730Z,7.08
2023-03-27T08:46:36.749Z,7.44
2023-03-27T08:47:37.162Z,7.71
2023-03-27T08:48:36.680Z,8.20
2023-03-27T08:49:36.668Z,8.57
2023-03-27T08:50:36.684Z,8.93
2023-03-27T08:51:36.639Z,9.04
2023-03-27T08:52:36.664Z,9.67
2023-03-27T08:53:36.611Z,10.14
2023-03-27T08:54:36.602Z,10.55
2023-03-27T08:55:36.587Z,11.11
2023-03-27T08:56:36.632Z,10.32
2023-03-27T08:57:36.558Z,9.55
2023-03-27T08:58:36.849Z,9.16
2023-03-27T08:59:36.536Z,8.65
2023-03-27T09:00:36.526Z,8.20
2023-03-27T09:01:36.611Z,7.69
2023-03-27T09:02:36.782Z,7.44
2023-03-27T09:03:36.531Z,7.89
2023-03-27T09:04:37.688Z,9.27
2023-03-27T09:05:36.453Z,10.39
2023-03-27T09:06:36.471Z,10.46
2023-03-27T09:07:36.466Z,10.94
2023-03-27T09:08:36.411Z,11.12
2023-03-27T09:09:36.421Z,11.49
2023-03-27T09:10:36.385Z,11.72
2023-03-27T09:11:36.369Z,12.41
2023-03-27T09:12:38.406Z,12.48
2023-03-27T09:13:36.344Z,12.58
2023-03-27T09:14:36.324Z,13.01
2023-03-27T09:15:36.307Z,12.88
2023-03-27T09:16:36.337Z,12.84
2023-03-27T09:17:36.327Z,12.80
2023-03-27T09:18:36.269Z,13.09
2023-03-27T09:19:36.261Z,13.19
2023-03-27T09:20:36.241Z,13.66
2023-03-27T09:21:36.229Z,13.91
2023-03-27T09:22:36.237Z,13.04
2023-03-27T09:23:36.202Z,12.52
2023-03-27T09:24:36.192Z,12.74
2023-03-27T09:25:36.174Z,11.75
2023-03-27T09:26:36.166Z,9.95
2023-03-27T09:27:36.152Z,9.86
2023-03-27T09:28:36.135Z,10.65
2023-03-27T09:29:36.124Z,11.33
2023-03-27T09:30:36.329Z,11.69
2023-03-27T09:31:36.154Z,12.18
2023-03-27T09:32:36.101Z,12.71
2023-03-27T09:33:36.073Z,13.55
2023-03-27T09:34:36.058Z,14.21
2023-03-27T09:35:36.071Z,13.96
2023-03-27T09:36:36.045Z,14.41
2023-03-27T09:37:37.059Z,14.35
2023-03-27T09:38:36.025Z,14.74
2023-03-27T09:39:35.982Z,15.16
2023-03-27T09:40:35.969Z,15.19
2023-03-27T09:41:35.960Z,14.23
2023-03-27T09:42:35.940Z,13.93
2023-03-27T09:43:35.942Z,12.87
2023-03-27T09:44:35.915Z,12.22
2023-03-27T09:45:35.900Z,11.98
2023-03-27T09:46:35.934Z,12.49
2023-03-27T09:47:35.937Z,13.43
2023-03-27T09:48:35.881Z,12.01
2023-03-27T09:49:35.854Z,10.90
2023-03-27T09:50:35.849Z,9.93
2023-03-27T09:51:35.828Z,9.27
2023-03-27T09:52:35.826Z,8.70
2023-03-27T09:53:35.953Z,8.34
2023-03-27T09:54:35.808Z,8.18
2023-03-27T09:55:35.774Z,8.55
2023-03-27T09:56:35.778Z,9.92
2023-03-27T09:57:35.751Z,10.02
2023-03-27T09:58:35.727Z,11.23
2023-03-27T09:59:35.731Z,12.55
2023-03-27T10:00:35.737Z,13.51
2023-03-27T10:01:35.932Z,13.57
2023-03-27T10:02:35.703Z,13.04
2023-03-27T10:03:35.717Z,11.97
2023-03-27T10:04:35.678Z,11.26
2023-03-27T10:05:35.643Z,12.54
2023-03-27T10:06:35.636Z,13.41
2023-03-27T10:07:35.604Z,12.98
2023-03-27T10:08:35.602Z,13.83
2023-03-27T10:09:35.584Z,14.54
2023-03-27T10:10:35.595Z,15.22
2023-03-27T10:11:35.563Z,15.68
2023-03-27T10:12:35.547Z,15.89
2023-03-27T10:13:35.534Z,15.25
2023-03-27T10:14:35.524Z,13.59
2023-03-27T10:15:35.498Z,12.58
2023-03-27T10:16:35.535Z,12.29
2023-03-27T10:17:35.516Z,11.70
2023-03-27T10:18:35.480Z,12.88
2023-03-27T10:19:35.454Z,12.77
2023-03-27T10:20:35.438Z,12.99
2023-03-27T10:21:35.433Z,13.94
2023-03-27T10:22:35.405Z,14.72
2023-03-27T10:23:35.419Z,14.78
2023-03-27T10:24:35.381Z,13.75
2023-03-27T10:25:35.370Z,14.24
2023-03-27T10:26:35.398Z,14.63
2023-03-27T10:27:35.342Z,15.33
2023-03-27T10:28:35.327Z,15.48
2023-03-27T10:29:35.322Z,15.85
2023-03-27T10:30:35.304Z,16.26
2023-03-27T10:31:35.305Z,15.19
2023-03-27T10:32:35.469Z,13.66
2023-03-27T10:33:35.271Z,12.40
2023-03-27T10:34:35.251Z,11.46
2023-03-27T10:35:36.750Z,10.68
2023-03-27T10:36:35.225Z,10.95
2023-03-27T10:37:35.370Z,11.54
2023-03-27T10:38:35.198Z,12.07
2023-03-27T10:39:35.176Z,12.74
2023-03-27T10:40:35.170Z,12.38
2023-03-27T10:41:35.150Z,12.04
2023-03-27T10:42:35.168Z,11.79
2023-03-27T10:43:35.127Z,11.44
2023-03-27T10:44:35.119Z,10.60
2023-03-27T10:45:35.099Z,10.31
2023-03-27T10:46:35.165Z,10.47
2023-03-27T10:47:35.111Z,10.58
2023-03-27T10:48:35.060Z,10.57
2023-03-27T10:49:35.041Z,11.09
2023-03-27T10:50:35.032Z,11.13
2023-03-27T10:51:45.469Z,10.78
2023-03-27T10:52:36.033Z,10.34
2023-03-27T10:53:35.086Z,9.96
2023-03-27T10:54:35.042Z,9.30
2023-03-27T10:55:34.970Z,8.83
2023-03-27T10:56:34.976Z,8.50
2023-03-27T10:57:34.934Z,8.31
2023-03-27T10:58:34.951Z,8.12
2023-03-27T10:59:41.543Z,7.86
2023-03-27T11:00:35.915Z,7.85
2023-03-27T11:01:34.930Z,8.25
2023-03-27T11:02:34.893Z,9.03
2023-03-27T11:03:34.892Z,9.41
2023-03-27T11:04:34.835Z,9.75
2023-03-27T11:05:34.860Z,9.91
2023-03-27T11:06:34.829Z,9.56
2023-03-27T11:07:34.801Z,9.42
2023-03-27T11:08:34.795Z,9.20
2023-03-27T11:09:34.774Z,8.97
2023-03-27T11:10:34.753Z,8.79
2023-03-27T11:11:34.765Z,8.40
2023-03-27T11:12:34.728Z,8.09
2023-03-27T11:13:34.722Z,7.94
2023-03-27T11:14:34.718Z,7.67
2023-03-27T11:15:34.686Z,7.52
2023-03-27T11:16:34.698Z,7.47
2023-03-27T11:17:34.661Z,8.03
2023-03-27T11:18:34.653Z,8.36
2023-03-27T11:19:34.701Z,8.71
2023-03-27T11:20:34.729Z,9.01
2023-03-27T11:21:34.752Z,9.42
2023-03-27T11:22:34.668Z,9.68
2023-03-27T11:23:34.574Z,9.88
2023-03-27T11:24:34.588Z,10.17
2023-03-27T11:25:34.541Z,10.38
2023-03-27T11:26:34.536Z,10.35
2023-03-27T11:27:34.523Z,10.28
2023-03-27T11:28:34.515Z,10.70
2023-03-27T11:29:35.131Z,11.62
2023-03-27T11:30:34.638Z,12.62
2023-03-27T11:31:34.699Z,12.61
2023-03-27T11:32:34.467Z,13.06
2023-03-27T11:33:34.441Z,13.57
2023-03-27T11:34:34.439Z,14.30
2023-03-27T11:35:34.464Z,13.68
2023-03-27T11:36:34.409Z,12.85
2023-03-27T11:37:34.510Z,11.74
2023-03-27T11:38:34.454Z,10.88
2023-03-27T11:39:34.447Z,10.38
2023-03-27T11:40:34.353Z,10.07
2023-03-27T11:41:34.381Z,9.71
2023-03-27T11:42:34.318Z,9.31
2023-03-27T11:43:34.297Z,9.44
2023-03-27T11:44:34.289Z,10.42
2023-03-27T11:45:34.279Z,11.66
2023-03-27T11:46:34.362Z,12.80
2023-03-27T11:47:34.260Z,13.72
2023-03-27T11:48:34.237Z,14.19
2023-03-27T11:49:34.235Z,14.74
2023-03-27T11:50:34.219Z,15.18
2023-03-27T11:51:34.200Z,15.30
2023-03-27T11:52:34.184Z,15.40
2023-03-27T11:53:34.169Z,15.33
2023-03-27T11:54:34.155Z,15.11
2023-03-27T11:55:34.156Z,14.91
2023-03-27T11:56:34.332Z,14.74
2023-03-27T11:57:34.299Z,13.65
2023-03-27T11:58:34.106Z,12.19
2023-03-27T11:59:34.086Z,11.31
2023-03-27T12:00:34.077Z,10.81
2023-03-27T12:01:34.061Z,10.42
2023-03-27T12:02:34.256Z,9.96
2023-03-27T12:03:34.104Z,9.80
2023-03-27T12:04:34.018Z,9.81
2023-03-27T12:05:34.006Z,9.55
2023-03-27T12:06:33.995Z,9.44
2023-03-27T12:07:36.455Z,9.26
2023-03-27T12:08:33.963Z,9.53
2023-03-27T12:09:33.944Z,10.55
2023-03-27T12:10:33.933Z,11.90
2023-03-27T12:11:33.932Z,12.89
2023-03-27T12:12:33.916Z,13.39
2023-03-27T12:13:41.136Z,14.21
2023-03-27T12:14:40.555Z,14.85
2023-03-27T12:15:34.901Z,15.52
2023-03-27T12:16:33.895Z,15.99
2023-03-27T12:17:33.879Z,15.92
2023-03-27T12:18:36.363Z,15.77
2023-03-27T12:20:33.810Z,15.98
2023-03-27T12:21:33.942Z,15.15
2023-03-27T12:22:33.781Z,14.49
2023-03-27T12:23:34.013Z,13.47
2023-03-27T12:24:33.752Z,12.46
2023-03-27T12:25:36.073Z,12.22
2023-03-27T12:26:33.727Z,11.51
2023-03-27T12:27:33.706Z,11.02
2023-03-27T12:28:33.902Z,10.86
2023-03-27T12:29:33.704Z,10.51
2023-03-27T12:30:33.817Z,10.22
2023-03-27T12:31:33.874Z,10.02
2023-03-27T12:32:33.847Z,9.80
2023-03-27T12:33:33.628Z,9.88
2023-03-27T12:34:33.720Z,11.45
2023-03-27T12:35:33.624Z,11.31
2023-03-27T12:36:33.595Z,11.31
2023-03-27T12:37:33.567Z,11.12
2023-03-27T12:38:33.609Z,11.03
2023-03-27T12:39:33.541Z,10.88
2023-03-27T12:40:33.532Z,10.38
2023-03-27T12:41:33.539Z,9.91
2023-03-27T12:42:33.518Z,9.32
2023-03-27T12:43:34.518Z,9.08
2023-03-27T12:44:33.475Z,9.20
2023-03-27T12:45:38.752Z,10.10
2023-03-27T12:46:34.515Z,11.31
2023-03-27T12:47:33.467Z,12.33
2023-03-27T12:48:33.425Z,12.91
2023-03-27T12:49:46.326Z,12.16
2023-03-27T12:50:34.454Z,11.19
2023-03-27T12:51:33.383Z,10.90
2023-03-27T12:52:33.367Z,10.75
2023-03-27T12:53:33.354Z,10.17
2023-03-27T12:54:33.342Z,10.01
2023-03-27T12:55:33.335Z,10.06
2023-03-27T12:56:33.453Z,10.09
2023-03-27T12:57:33.463Z,10.14
2023-03-27T12:58:33.298Z,10.26
2023-03-27T12:59:33.284Z,9.92
2023-03-27T13:00:33.259Z,9.40
2023-03-27T13:01:45.389Z,9.27
2023-03-27T13:02:34.398Z,9.27
2023-03-27T13:03:33.369Z,9.17
2023-03-27T13:04:33.206Z,9.01
2023-03-27T13:05:33.195Z,8.93
2023-03-27T13:06:33.210Z,8.86
2023-03-27T13:07:33.174Z,8.96
2023-03-27T13:08:33.152Z,8.82
2023-03-27T13:09:33.141Z,8.75
2023-03-27T13:10:33.128Z,8.55
2023-03-27T13:11:33.109Z,8.28
2023-03-27T13:12:33.096Z,8.17
2023-03-27T13:13:33.091Z,8.02
2023-03-27T13:14:33.070Z,8.09